createdAt,value
2022-12-12T00:01:44.849Z,6.99
2022-12-12T00:04:12.027Z,7.22
2022-12-12T00:06:38.846Z,7.37
2022-12-12T00:09:05.732Z,7.52
2022-12-12T00:11:32.448Z,7.39
2022-12-12T00:13:59.228Z,7.68
2022-12-12T00:16:26.101Z,7.76
2022-12-12T00:18:53.230Z,8.00
2022-12-12T00:21:25.760Z,7.88
2022-12-12T00:23:52.969Z,7.92
2022-12-12T00:26:25.434Z,7.56
2022-12-12T00:28:52.322Z,7.45
2022-12-12T00:31:19.290Z,7.16
2022-12-12T00:33:48.079Z,7.57
2022-12-12T00:36:14.948Z,7.22
2022-12-12T00:38:41.621Z,7.07
2022-12-12T00:41:08.756Z,7.02
2022-12-12T00:43:35.427Z,6.99
2022-12-12T00:46:02.549Z,7.22
2022-12-12T00:48:29.347Z,7.58
2022-12-12T00:50:56.900Z,7.71
2022-12-12T00:53:23.817Z,8.05
2022-12-12T00:55:59.969Z,8.09
2022-12-12T00:58:27.061Z,7.88
2022-12-12T01:00:54.828Z,7.40
2022-12-12T01:03:21.564Z,7.00
2022-12-12T01:05:48.363Z,6.90
2022-12-12T01:08:15.091Z,6.88
2022-12-12T01:10:41.814Z,6.90
2022-12-12T01:13:08.465Z,7.08
2022-12-12T01:15:35.083Z,5.86
2022-12-12T01:18:01.679Z,6.27
2022-12-12T01:20:28.633Z,5.80
2022-12-12T01:22:55.268Z,5.30
2022-12-12T01:25:22.151Z,5.81
2022-12-12T01:27:49.076Z,6.29
2022-12-12T01:30:19.569Z,7.01
2022-12-12T01:32:46.276Z,7.10
2022-12-12T01:35:13.292Z,7.34
2022-12-12T01:37:40.857Z,7.51
2022-12-12T01:40:14.428Z,7.61
2022-12-12T01:42:41.432Z,7.62
2022-12-12T01:45:09.150Z,7.87
2022-12-12T01:47:35.756Z,7.79
2022-12-12T01:50:08.173Z,7.84
2022-12-12T01:52:41.549Z,7.77
2022-12-12T01:55:13.641Z,7.74
2022-12-12T01:57:46.128Z,7.65
2022-12-12T02:00:15.186Z,7.53
2022-12-12T02:02:44.399Z,7.46
2022-12-12T02:05:19.440Z,7.37
2022-12-12T02:07:46.109Z,7.25
2022-12-12T02:10:13.047Z,7.67
2022-12-12T02:12:39.855Z,7.94
2022-12-12T02:15:06.828Z,8.03
2022-12-12T02:17:55.414Z,7.74
2022-12-12T02:20:36.968Z,7.60
2022-12-12T02:23:14.305Z,7.40
2022-12-12T02:26:08.476Z,7.25
2022-12-12T02:28:53.165Z,7.21
2022-12-12T02:31:38.912Z,7.34
2022-12-12T02:34:38.084Z,7.49
2022-12-12T02:37:19.794Z,7.36
2022-12-12T02:40:22.282Z,7.55
2022-12-12T02:42:54.382Z,7.43
2022-12-12T02:45:26.041Z,7.47
2022-12-12T02:48:05.180Z,6.40
2022-12-12T02:50:33.015Z,5.83
2022-12-12T02:53:00.511Z,4.96
2022-12-12T02:55:27.422Z,5.33
2022-12-12T02:57:55.421Z,5.42
2022-12-12T03:00:22.127Z,6.50
2022-12-12T03:03:34.300Z,6.77
2022-12-12T03:06:44.521Z,6.87
2022-12-12T03:09:34.002Z,6.65
2022-12-12T03:12:08.148Z,6.69
2022-12-12T03:14:43.977Z,6.47
2022-12-12T03:17:22.565Z,6.71
2022-12-12T03:20:00.378Z,6.57
2022-12-12T03:22:43.645Z,5.33
2022-12-12T03:25:18.165Z,4.61
2022-12-12T03:28:22.771Z,5.98
2022-12-12T03:30:56.112Z,6.39
2022-12-12T03:33:33.704Z,5.01
2022-12-12T03:36:12.329Z,5.55
2022-12-12T03:38:44.114Z,6.28
2022-12-12T03:41:19.556Z,6.77
2022-12-12T03:43:59.450Z,6.65
2022-12-12T03:46:48.920Z,6.56
2022-12-12T03:49:20.890Z,6.36
2022-12-12T03:51:55.318Z,6.66
2022-12-12T03:54:28.644Z,6.49
2022-12-12T03:57:03.097Z,6.66
2022-12-12T03:59:53.410Z,6.60
2022-12-12T04:02:30.752Z,6.87
2022-12-12T04:05:18.566Z,6.92
2022-12-12T04:07:52.391Z,5.89
2022-12-12T04:10:42.179Z,6.65
2022-12-12T04:13:20.243Z,6.22
2022-12-12T04:15:53.836Z,6.42
2022-12-12T04:18:29.229Z,5.40
2022-12-12T04:21:51.308Z,5.37
2022-12-12T04:24:23.531Z,5.58
2022-12-12T04:27:00.316Z,5.75
2022-12-12T04:29:42.317Z,5.75
2022-12-12T04:32:20.120Z,5.43
2022-12-12T04:35:03.958Z,5.93
2022-12-12T04:37:34.719Z,6.02
2022-12-12T04:40:05.283Z,5.92
2022-12-12T04:42:37.398Z,5.45
2022-12-12T04:45:10.712Z,5.66
2022-12-12T04:47:39.818Z,5.23
2022-12-12T04:50:08.575Z,5.04
2022-12-12T04:52:36.595Z,5.57
2022-12-12T04:55:09.541Z,5.61
2022-12-12T04:57:42.624Z,5.76
2022-12-12T05:00:11.576Z,5.75
2022-12-12T05:02:43.926Z,5.90
2022-12-12T05:05:16.153Z,5.98
2022-12-12T05:08:06.065Z,5.71
2022-12-12T05:10:33.321Z,5.83
2022-12-12T05:13:02.090Z,6.37
2022-12-12T05:15:29.852Z,6.35
2022-12-12T05:18:07.862Z,6.13
2022-12-12T05:20:34.706Z,5.88
2022-12-12T05:23:01.285Z,5.63
2022-12-12T05:25:27.902Z,5.91
2022-12-12T05:27:54.527Z,6.18
2022-12-12T05:30:21.500Z,6.32
2022-12-12T05:32:48.767Z,6.74
2022-12-12T05:35:15.674Z,6.15
2022-12-12T05:37:48.117Z,6.09
2022-12-12T05:40:19.038Z,5.79
2022-12-12T05:42:45.609Z,5.87
2022-12-12T05:45:12.874Z,6.22
2022-12-12T05:47:39.644Z,6.09
2022-12-12T05:50:08.016Z,6.14
2022-12-12T05:52:34.804Z,6.30
2022-12-12T05:55:02.255Z,6.40
2022-12-12T05:57:28.879Z,5.97
2022-12-12T05:59:55.556Z,6.26
2022-12-12T06:02:22.165Z,6.32
2022-12-12T06:04:48.815Z,6.11
2022-12-12T06:07:15.383Z,6.17
2022-12-12T06:09:42.055Z,6.37
2022-12-12T06:12:08.951Z,6.47
2022-12-12T06:14:35.529Z,6.28
2022-12-12T06:17:02.288Z,6.00
2022-12-12T06:19:28.926Z,6.09
2022-12-12T06:21:55.647Z,6.20
2022-12-12T06:24:22.265Z,6.34
2022-12-12T06:26:49.114Z,6.56
2022-12-12T06:29:15.733Z,6.66
2022-12-12T06:31:42.415Z,6.89
2022-12-12T06:34:09.219Z,6.57
2022-12-12T06:36:36.701Z,6.39
2022-12-12T06:39:03.686Z,6.48
2022-12-12T06:41:32.183Z,6.62
2022-12-12T06:43:59.216Z,6.52
2022-12-12T06:46:28.103Z,6.41
2022-12-12T06:48:56.223Z,6.45
2022-12-12T06:51:33.718Z,6.50
2022-12-12T06:54:00.349Z,6.55
2022-12-12T06:56:27.672Z,6.45
2022-12-12T06:58:55.129Z,6.38
2022-12-12T07:01:23.273Z,6.63
2022-12-12T07:03:51.792Z,6.60
2022-12-12T07:06:21.144Z,7.06
2022-12-12T07:08:48.277Z,6.79
2022-12-12T07:11:17.973Z,6.76
2022-12-12T07:13:47.728Z,7.04
2022-12-12T07:16:14.949Z,7.15
2022-12-12T07:18:45.003Z,7.19
2022-12-12T07:21:15.341Z,7.25
2022-12-12T07:23:42.522Z,7.08
2022-12-12T07:26:13.387Z,7.09
2022-12-12T07:28:40.282Z,6.94
2022-12-12T07:31:13.067Z,6.90
2022-12-12T07:33:44.088Z,6.71
2022-12-12T07:36:12.965Z,6.96
2022-12-12T07:38:39.790Z,7.17
2022-12-12T07:41:09.935Z,6.77
2022-12-12T07:43:42.848Z,6.65
2022-12-12T07:46:13.534Z,6.70
2022-12-12T07:48:40.120Z,7.22
2022-12-12T07:51:06.722Z,7.06
2022-12-12T07:53:33.619Z,6.93
2022-12-12T07:56:00.189Z,6.78
2022-12-12T07:58:27.096Z,6.81
2022-12-12T08:00:53.937Z,6.98
2022-12-12T08:03:20.684Z,7.13
2022-12-12T08:05:47.385Z,7.28
2022-12-12T08:08:14.104Z,7.38
2022-12-12T08:10:41.460Z,7.43
2022-12-12T08:13:08.196Z,7.42
2022-12-12T08:15:35.043Z,7.63
2022-12-12T08:18:12.191Z,7.78
2022-12-12T08:20:40.739Z,7.65
2022-12-12T08:23:07.918Z,8.01
2022-12-12T08:25:54.165Z,7.89
2022-12-12T08:28:21.429Z,7.72
2022-12-12T08:30:52.535Z,7.89
2022-12-12T08:33:19.956Z,7.20
2022-12-12T08:35:47.791Z,7.18
2022-12-12T08:38:24.065Z,7.11
2022-12-12T08:41:00.332Z,7.39
2022-12-12T08:43:37.423Z,7.35
2022-12-12T08:46:17.052Z,6.85
2022-12-12T08:48:46.971Z,6.32
2022-12-12T08:51:16.310Z,6.69
2022-12-12T08:53:48.212Z,7.20
2022-12-12T08:56:16.524Z,7.14
2022-12-12T08:58:47.925Z,7.64
2022-12-12T09:01:20.903Z,7.41
2022-12-12T09:03:48.943Z,7.83
2022-12-12T09:06:16.797Z,8.17
2022-12-12T09:08:44.459Z,8.24
2022-12-12T09:11:12.231Z,8.23
2022-12-12T09:13:39.932Z,7.86
2022-12-12T09:16:08.350Z,8.12
2022-12-12T09:18:35.802Z,8.17
2022-12-12T09:21:02.926Z,8.23
2022-12-12T09:23:29.623Z,8.27
2022-12-12T09:25:56.775Z,8.24
2022-12-12T09:28:25.325Z,8.00
2022-12-12T09:30:52.366Z,8.13
2022-12-12T09:33:19.310Z,8.36
2022-12-12T09:35:45.960Z,8.16
2022-12-12T09:38:14.816Z,8.41
2022-12-12T09:40:53.527Z,8.73
2022-12-12T09:43:29.469Z,8.77
2022-12-12T09:45:57.271Z,8.74
2022-12-12T09:48:40.896Z,8.30
2022-12-12T09:51:08.573Z,8.84
2022-12-12T09:53:35.746Z,8.80
2022-12-12T09:56:05.121Z,8.80
2022-12-12T09:58:34.375Z,8.86
2022-12-12T10:01:31.242Z,8.95
2022-12-12T10:04:11.348Z,8.78
2022-12-12T10:07:01.435Z,8.92
2022-12-12T10:10:08.632Z,9.01
2022-12-12T10:12:35.370Z,9.20
2022-12-12T10:15:07.012Z,9.55
2022-12-12T10:17:42.566Z,9.58
2022-12-12T10:20:22.052Z,9.42
2022-12-12T10:22:51.929Z,9.34
2022-12-12T10:26:01.544Z,9.41
2022-12-12T10:28:31.226Z,9.33
2022-12-12T10:31:06.812Z,9.02
2022-12-12T10:33:55.252Z,9.06
2022-12-12T10:36:30.776Z,9.25
2022-12-12T10:39:19.151Z,8.72
2022-12-12T10:42:22.278Z,8.62
2022-12-12T10:45:03.003Z,8.99
2022-12-12T10:47:30.788Z,9.29
2022-12-12T10:50:17.553Z,9.52
2022-12-12T10:52:44.121Z,9.55
2022-12-12T10:55:20.876Z,9.97
2022-12-12T10:57:47.533Z,9.83
2022-12-12T11:00:26.598Z,9.85
2022-12-12T11:03:00.192Z,9.82
2022-12-12T11:05:29.923Z,10.16
2022-12-12T11:08:27.678Z,10.04
2022-12-12T11:11:07.372Z,9.77
2022-12-12T11:13:46.381Z,9.93
2022-12-12T11:16:17.818Z,10.17
2022-12-12T11:19:18.686Z,10.18
2022-12-12T11:21:46.823Z,10.26
2022-12-12T11:24:16.465Z,9.51
2022-12-12T11:26:47.889Z,9.93
2022-12-12T11:29:41.132Z,9.84
2022-12-12T11:32:24.451Z,9.74
2022-12-12T11:34:57.009Z,10.06
2022-12-12T11:37:27.806Z,9.84
2022-12-12T11:39:56.998Z,9.35
2022-12-12T11:42:34.571Z,9.40
2022-12-12T11:45:23.743Z,9.19
2022-12-12T11:47:50.401Z,9.36
2022-12-12T11:50:24.305Z,9.30
2022-12-12T11:52:56.178Z,9.07
2022-12-12T11:55:33.853Z,9.08
2022-12-12T11:58:12.625Z,9.47
2022-12-12T12:01:04.001Z,9.54
2022-12-12T12:03:55.256Z,9.53
2022-12-12T12:06:49.493Z,9.26
2022-12-12T12:09:28.236Z,9.19
2022-12-12T12:12:06.824Z,9.77
2022-12-12T12:15:00.154Z,9.85
2022-12-12T12:17:47.070Z,8.73
2022-12-12T12:20:42.377Z,8.96
2022-12-12T12:23:20.863Z,9.40
2022-12-12T12:25:59.532Z,8.97
2022-12-12T12:28:52.696Z,9.03
2022-12-12T12:31:37.973Z,9.13
2022-12-12T12:34:10.267Z,9.51
2022-12-12T12:36:36.806Z,9.38
2022-12-12T12:39:11.169Z,9.26
2022-12-12T12:41:52.862Z,9.67
2022-12-12T12:44:37.163Z,9.60
2022-12-12T12:47:45.415Z,9.73
2022-12-12T12:50:18.743Z,9.69
2022-12-12T12:52:53.787Z,9.58
2022-12-12T12:55:26.939Z,9.65
2022-12-12T12:57:54.172Z,9.88
2022-12-12T13:00:27.315Z,9.57
2022-12-12T13:02:58.061Z,9.07
2022-12-12T13:05:49.787Z,9.52
2022-12-12T13:08:16.404Z,9.75
2022-12-12T13:10:49.644Z,9.76
2022-12-12T13:13:29.485Z,9.83
2022-12-12T13:16:03.019Z,9.50
2022-12-12T13:18:44.491Z,9.50
2022-12-12T13:21:35.180Z,9.71
2022-12-12T13:24:02.362Z,9.86
2022-12-12T13:26:35.352Z,9.98
2022-12-12T13:29:33.800Z,9.85
2022-12-12T13:32:12.308Z,9.64
2022-12-12T13:34:44.827Z,9.48
2022-12-12T13:37:18.225Z,9.79
2022-12-12T13:40:02.647Z,9.81
2022-12-12T13:42:51.912Z,9.81
2022-12-12T13:45:37.432Z,9.75
2022-12-12T13:48:17.129Z,10.04
2022-12-12T13:50:43.764Z,9.80
2022-12-12T13:53:18.975Z,9.40
2022-12-12T13:55:45.798Z,9.86
2022-12-12T13:58:20.547Z,9.69
2022-12-12T14:00:47.542Z,9.79
2022-12-12T14:03:14.157Z,9.68
2022-12-12T14:05:44.704Z,9.69
2022-12-12T14:08:11.325Z,9.65
2022-12-12T14:10:37.994Z,9.74
2022-12-12T14:13:22.850Z,9.81
2022-12-12T14:16:00.873Z,9.73
2022-12-12T14:18:32.063Z,9.63
2022-12-12T14:21:14.268Z,9.39
2022-12-12T14:23:47.207Z,9.70
2022-12-12T14:26:28.850Z,9.79
2022-12-12T14:29:17.390Z,9.80
2022-12-12T14:31:58.953Z,9.43
2022-12-12T14:34:34.597Z,9.82
2022-12-12T14:37:32.826Z,8.82
2022-12-12T14:40:28.112Z,9.52
2022-12-12T14:43:19.478Z,9.70
2022-12-12T14:45:51.665Z,9.55
2022-12-12T14:48:18.286Z,9.61
2022-12-12T14:51:10.923Z,9.23
2022-12-12T14:53:37.486Z,9.16
2022-12-12T14:56:11.650Z,8.95
2022-12-12T14:59:05.542Z,8.79
2022-12-12T15:01:45.991Z,8.88
2022-12-12T15:04:23.065Z,9.22
2022-12-12T15:07:03.388Z,9.21
2022-12-12T15:09:37.975Z,8.43
2022-12-12T15:12:10.543Z,8.64
2022-12-12T15:14:39.325Z,8.42
2022-12-12T15:17:12.325Z,8.62
2022-12-12T15:19:45.104Z,8.21
2022-12-12T15:22:20.968Z,8.06
2022-12-12T15:24:48.170Z,8.27
2022-12-12T15:27:24.559Z,8.56
2022-12-12T15:29:51.791Z,8.20
2022-12-12T15:32:22.992Z,8.64
2022-12-12T15:35:00.857Z,8.82
2022-12-12T15:37:36.307Z,8.86
2022-12-12T15:40:09.555Z,8.80
2022-12-12T15:42:42.881Z,8.79
2022-12-12T15:45:24.319Z,8.95
2022-12-12T15:47:53.510Z,8.97
2022-12-12T15:50:27.332Z,8.80
2022-12-12T15:53:17.583Z,8.21
2022-12-12T15:56:06.847Z,8.04
2022-12-12T15:58:43.031Z,7.53
2022-12-12T16:01:20.664Z,7.30
2022-12-12T16:04:03.975Z,7.98
2022-12-12T16:06:30.568Z,8.11
2022-12-12T16:09:01.048Z,7.27
2022-12-12T16:11:33.128Z,6.84
2022-12-12T16:14:00.553Z,6.87
2022-12-12T16:16:48.965Z,6.93
2022-12-12T16:19:35.927Z,6.91
2022-12-12T16:22:17.446Z,7.04
2022-12-12T16:24:50.570Z,6.93
2022-12-12T16:27:20.646Z,6.68
2022-12-12T16:29:50.470Z,7.07
2022-12-12T16:32:20.497Z,7.02
2022-12-12T16:34:49.349Z,6.84
2022-12-12T16:37:18.235Z,7.18
2022-12-12T16:39:45.408Z,7.59
2022-12-12T16:42:14.044Z,7.71
2022-12-12T16:44:40.816Z,7.15
2022-12-12T16:47:25.777Z,7.19
2022-12-12T16:49:52.413Z,6.06
2022-12-12T16:52:20.559Z,6.48
2022-12-12T16:54:53.097Z,6.34
2022-12-12T16:57:21.950Z,6.46
2022-12-12T16:59:48.910Z,6.40
2022-12-12T17:02:24.395Z,5.98
2022-12-12T17:04:51.631Z,5.78
2022-12-12T17:07:21.250Z,6.00
2022-12-12T17:09:47.932Z,5.78
2022-12-12T17:12:15.780Z,5.72
2022-12-12T17:14:45.633Z,5.94
2022-12-12T17:17:14.841Z,6.39
2022-12-12T17:19:44.434Z,6.30
2022-12-12T17:22:12.256Z,5.90
2022-12-12T17:24:38.995Z,5.52
2022-12-12T17:27:05.551Z,6.03
2022-12-12T17:29:32.141Z,5.88
2022-12-12T17:31:58.846Z,4.67
2022-12-12T17:34:25.559Z,4.34
2022-12-12T17:36:52.207Z,4.70
2022-12-12T17:39:23.490Z,4.95
2022-12-12T17:41:50.083Z,4.99
2022-12-12T17:44:17.019Z,4.42
2022-12-12T17:46:43.682Z,4.61
2022-12-12T17:49:10.267Z,4.77
2022-12-12T17:51:37.607Z,5.17
2022-12-12T17:54:04.397Z,5.08
2022-12-12T17:56:31.096Z,4.50
2022-12-12T17:58:58.112Z,4.69
2022-12-12T18:01:27.152Z,4.31
2022-12-12T18:03:54.668Z,4.32
2022-12-12T18:06:22.934Z,4.28
2022-12-12T18:08:50.159Z,4.20
2022-12-12T18:11:19.492Z,3.78
2022-12-12T18:13:48.616Z,4.46
2022-12-12T18:16:16.219Z,4.35
2022-12-12T18:18:43.262Z,4.25
2022-12-12T18:21:35.951Z,4.39
2022-12-12T18:24:04.247Z,4.50
2022-12-12T18:26:38.961Z,4.55
2022-12-12T18:29:07.453Z,4.27
2022-12-12T18:31:35.748Z,4.48
2022-12-12T18:34:09.036Z,4.27
2022-12-12T18:36:35.628Z,4.28
2022-12-12T18:39:05.386Z,4.34
2022-12-12T18:41:36.904Z,4.49
2022-12-12T18:44:11.210Z,4.51
2022-12-12T18:46:42.804Z,4.38
2022-12-12T18:49:13.894Z,4.24
2022-12-12T18:51:41.153Z,4.30
2022-12-12T18:54:14.300Z,4.61
2022-12-12T18:56:41.719Z,4.60
2022-12-12T18:59:09.855Z,4.72
2022-12-12T19:01:39.409Z,4.92
2022-12-12T19:04:12.253Z,5.07
2022-12-12T19:06:41.876Z,5.35
2022-12-12T19:09:34.853Z,5.22
2022-12-12T19:12:02.545Z,4.96
2022-12-12T19:14:59.791Z,5.00
2022-12-12T19:17:26.456Z,5.09
2022-12-12T19:20:35.667Z,5.20
2022-12-12T19:23:06.210Z,5.04
2022-12-12T19:25:39.223Z,5.14
2022-12-12T19:28:14.616Z,5.41
2022-12-12T19:30:41.470Z,5.46
2022-12-12T19:33:08.307Z,5.43
2022-12-12T19:35:38.378Z,5.58
2022-12-12T19:38:05.121Z,5.12
2022-12-12T19:40:31.753Z,5.26
2022-12-12T19:42:58.360Z,5.15
2022-12-12T19:45:24.946Z,5.50
2022-12-12T19:47:51.530Z,5.70
2022-12-12T19:50:18.340Z,5.76
2022-12-12T19:52:48.093Z,5.30
2022-12-12T19:55:14.727Z,5.16
2022-12-12T19:57:44.324Z,4.98
2022-12-12T20:00:11.952Z,5.13
2022-12-12T20:02:38.945Z,4.82
2022-12-12T20:05:05.878Z,4.88
2022-12-12T20:07:35.355Z,4.87
2022-12-12T20:10:09.477Z,4.79
2022-12-12T20:12:44.212Z,4.69
2022-12-12T20:15:16.170Z,4.54
2022-12-12T20:17:42.779Z,4.33
2022-12-12T20:20:11.063Z,4.25
2022-12-12T20:22:39.244Z,4.48
2022-12-12T20:25:06.344Z,4.39
2022-12-12T20:27:35.582Z,4.33
2022-12-12T20:30:02.955Z,4.07
2022-12-12T20:32:29.848Z,4.69
2022-12-12T20:34:56.487Z,3.94
2022-12-12T20:37:23.077Z,4.01
2022-12-12T20:39:49.689Z,3.61
2022-12-12T20:42:16.305Z,3.22
2022-12-12T20:44:42.863Z,3.00
2022-12-12T20:47:14.309Z,2.61
2022-12-12T20:49:40.956Z,2.24
2022-12-12T20:52:07.526Z,2.90
2022-12-12T20:54:34.438Z,2.52
2022-12-12T20:57:02.935Z,2.03
2022-12-12T20:59:30.195Z,2.57
2022-12-12T21:01:56.888Z,2.20
2022-12-12T21:04:24.368Z,2.31
2022-12-12T21:06:51.672Z,2.54
2022-12-12T21:09:25.031Z,2.26
2022-12-12T21:11:55.186Z,2.86
2022-12-12T21:14:22.361Z,3.05
2022-12-12T21:16:49.057Z,3.34
2022-12-12T21:19:16.205Z,2.99
2022-12-12T21:21:43.781Z,3.21
2022-12-12T21:24:14.691Z,3.00
2022-12-12T21:26:41.858Z,3.76
2022-12-12T21:29:08.739Z,3.56
2022-12-12T21:31:38.714Z,2.81
2022-12-12T21:34:06.410Z,3.64
2022-12-12T21:36:33.902Z,3.89
2022-12-12T21:39:02.490Z,3.83
2022-12-12T21:41:29.144Z,4.40
2022-12-12T21:43:59.466Z,4.13
2022-12-12T21:46:28.560Z,3.89
2022-12-12T21:49:15.110Z,4.27
2022-12-12T21:51:42.465Z,4.54
2022-12-12T21:54:11.385Z,3.98
2022-12-12T21:56:38.870Z,3.54
2022-12-12T21:59:05.641Z,4.36
2022-12-12T22:01:32.850Z,4.12
2022-12-12T22:04:00.288Z,4.30
2022-12-12T22:06:29.759Z,4.51
2022-12-12T22:08:57.526Z,4.67
2022-12-12T22:11:41.841Z,4.49
2022-12-12T22:14:12.909Z,3.67
2022-12-12T22:16:39.536Z,3.71
2022-12-12T22:19:10.568Z,3.81
2022-12-12T22:21:37.349Z,4.00
2022-12-12T22:24:04.725Z,4.05
2022-12-12T22:26:39.714Z,4.03
2022-12-12T22:29:10.098Z,4.51
2022-12-12T22:31:38.293Z,4.70
2022-12-12T22:34:16.938Z,4.60
2022-12-12T22:36:45.143Z,4.55
2022-12-12T22:39:16.117Z,4.37
2022-12-12T22:41:42.808Z,4.31
2022-12-12T22:44:14.333Z,3.70
2022-12-12T22:46:44.161Z,3.68
2022-12-12T22:49:13.207Z,4.28
2022-12-12T22:51:41.533Z,3.96
2022-12-12T22:54:08.196Z,4.43
2022-12-12T22:56:36.456Z,3.91
2022-12-12T22:59:04.956Z,3.77
2022-12-12T23:01:31.756Z,3.73
2022-12-12T23:03:58.764Z,3.72
2022-12-12T23:06:30.917Z,3.77
2022-12-12T23:09:00.140Z,4.06
2022-12-12T23:11:29.490Z,3.05
2022-12-12T23:14:03.741Z,3.99
2022-12-12T23:16:31.158Z,4.36
2022-12-12T23:18:58.707Z,4.44
2022-12-12T23:21:25.432Z,4.38
2022-12-12T23:23:52.457Z,4.56
2022-12-12T23:26:22.701Z,4.04
2022-12-12T23:28:49.827Z,4.37
2022-12-12T23:31:25.511Z,4.58
2022-12-12T23:33:54.948Z,4.34
2022-12-12T23:36:21.981Z,4.39
2022-12-12T23:38:48.641Z,4.23
2022-12-12T23:41:16.397Z,3.85
2022-12-12T23:43:43.243Z,3.46
2022-12-12T23:46:28.193Z,3.61
2022-12-12T23:49:03.079Z,3.36
2022-12-12T23:51:31.712Z,3.35
2022-12-12T23:54:00.181Z,3.45
2022-12-12T23:56:27.167Z,3.63
2022-12-12T23:58:54.854Z,3.78
